sensor_id;sensor_type;location;lat;lon;timestamp;P1;durP1;ratioP1;P2;durP2;ratioP2
24443;SDS011;13346;50.984;5.822;2022-10-17T00:01:44;6.13;;;5.63;;
24443;SDS011;13346;50.984;5.822;2022-10-17T00:04:11;6.87;;;6.17;;
24443;SDS011;13346;50.984;5.822;2022-10-17T00:06:38;7.70;;;7.20;;
24443;SDS011;13346;50.984;5.822;2022-10-17T00:09:07;7.90;;;7.30;;
24443;SDS011;13346;50.984;5.822;2022-10-17T00:11:34;9.80;;;8.53;;
24443;SDS011;13346;50.984;5.822;2022-10-17T00:14:02;8.40;;;7.87;;
24443;SDS011;13346;50.984;5.822;2022-10-17T00:16:30;7.73;;;7.23;;
24443;SDS011;13346;50.984;5.822;2022-10-17T00:19:01;7.33;;;6.73;;
24443;SDS011;13346;50.984;5.822;2022-10-17T00:21:28;9.90;;;9.17;;
24443;SDS011;13346;50.984;5.822;2022-10-17T00:23:56;10.17;;;9.23;;
24443;SDS011;13346;50.984;5.822;2022-10-17T00:26:24;9.97;;;9.20;;
24443;SDS011;13346;50.984;5.822;2022-10-17T00:28:51;10.18;;;9.30;;
24443;SDS011;13346;50.984;5.822;2022-10-17T00:31:19;10.70;;;9.73;;
24443;SDS011;13346;50.984;5.822;2022-10-17T00:33:47;9.87;;;8.87;;
24443;SDS011;13346;50.984;5.822;2022-10-17T00:36:15;10.50;;;9.45;;
24443;SDS011;13346;50.984;5.822;2022-10-17T00:38:44;8.40;;;7.82;;
24443;SDS011;13346;50.984;5.822;2022-10-17T00:41:14;9.37;;;8.67;;
24443;SDS011;13346;50.984;5.822;2022-10-17T00:43:54;9.00;;;8.15;;
24443;SDS011;13346;50.984;5.822;2022-10-17T00:46:23;7.93;;;7.32;;
24443;SDS011;13346;50.984;5.822;2022-10-17T00:48:52;6.75;;;6.15;;
24443;SDS011;13346;50.984;5.822;2022-10-17T00:51:23;6.70;;;6.15;;
24443;SDS011;13346;50.984;5.822;2022-10-17T00:53:54;7.32;;;6.63;;
24443;SDS011;13346;50.984;5.822;2022-10-17T00:56:22;7.22;;;6.53;;
24443;SDS011;13346;50.984;5.822;2022-10-17T00:58:49;6.43;;;5.95;;
24443;SDS011;13346;50.984;5.822;2022-10-17T01:01:17;6.28;;;5.68;;
24443;SDS011;13346;50.984;5.822;2022-10-17T01:03:44;6.03;;;5.72;;
24443;SDS011;13346;50.984;5.822;2022-10-17T01:06:12;5.88;;;5.47;;
24443;SDS011;13346;50.984;5.822;2022-10-17T01:08:39;5.55;;;5.10;;
24443;SDS011;13346;50.984;5.822;2022-10-17T01:11:09;6.28;;;5.65;;
24443;SDS011;13346;50.984;5.822;2022-10-17T01:13:48;6.88;;;4.90;;
24443;SDS011;13346;50.984;5.822;2022-10-17T01:16:24;4.93;;;4.53;;
24443;SDS011;13346;50.984;5.822;2022-10-17T01:18:59;5.55;;;5.15;;
24443;SDS011;13346;50.984;5.822;2022-10-17T01:21:36;4.93;;;4.63;;
24443;SDS011;13346;50.984;5.822;2022-10-17T01:24:23;8.55;;;5.22;;
24443;SDS011;13346;50.984;5.822;2022-10-17T01:27:26;7.28;;;4.82;;
24443;SDS011;13346;50.984;5.822;2022-10-17T01:30:25;4.50;;;4.13;;
24443;SDS011;13346;50.984;5.822;2022-10-17T01:33:21;6.28;;;4.57;;
24443;SDS011;13346;50.984;5.822;2022-10-17T01:35:57;9.07;;;4.78;;
24443;SDS011;13346;50.984;5.822;2022-10-17T01:38:29;5.40;;;4.45;;
24443;SDS011;13346;50.984;5.822;2022-10-17T01:41:01;4.97;;;4.50;;
24443;SDS011;13346;50.984;5.822;2022-10-17T01:43:32;7.45;;;4.47;;
24443;SDS011;13346;50.984;5.822;2022-10-17T01:46:05;5.20;;;4.18;;
24443;SDS011;13346;50.984;5.822;2022-10-17T01:48:39;4.30;;;4.03;;
24443;SDS011;13346;50.984;5.822;2022-10-17T01:51:11;6.07;;;4.57;;
24443;SDS011;13346;50.984;5.822;2022-10-17T01:53:44;5.72;;;5.15;;
24443;SDS011;13346;50.984;5.822;2022-10-17T01:56:15;6.85;;;4.95;;
24443;SDS011;13346;50.984;5.822;2022-10-17T01:58:44;4.72;;;3.80;;
24443;SDS011;13346;50.984;5.822;2022-10-17T02:01:16;7.72;;;5.20;;
24443;SDS011;13346;50.984;5.822;2022-10-17T02:03:45;4.05;;;3.75;;
24443;SDS011;13346;50.984;5.822;2022-10-17T02:06:16;5.57;;;4.35;;
24443;SDS011;13346;50.984;5.822;2022-10-17T02:08:44;4.55;;;3.58;;
24443;SDS011;13346;50.984;5.822;2022-10-17T02:11:13;7.97;;;3.45;;
24443;SDS011;13346;50.984;5.822;2022-10-17T02:13:47;3.83;;;3.63;;
24443;SDS011;13346;50.984;5.822;2022-10-17T02:16:33;6.00;;;3.83;;
24443;SDS011;13346;50.984;5.822;2022-10-17T02:19:13;6.40;;;3.88;;
24443;SDS011;13346;50.984;5.822;2022-10-17T02:22:02;3.78;;;3.55;;
24443;SDS011;13346;50.984;5.822;2022-10-17T02:24:38;3.85;;;3.55;;
24443;SDS011;13346;50.984;5.822;2022-10-17T02:27:13;3.92;;;3.72;;
24443;SDS011;13346;50.984;5.822;2022-10-17T02:29:50;12.80;;;4.18;;
24443;SDS011;13346;50.984;5.822;2022-10-17T02:32:23;7.63;;;3.67;;
24443;SDS011;13346;50.984;5.822;2022-10-17T02:34:58;4.25;;;3.85;;
24443;SDS011;13346;50.984;5.822;2022-10-17T02:37:29;3.72;;;3.50;;
24443;SDS011;13346;50.984;5.822;2022-10-17T02:39:58;4.20;;;3.17;;
24443;SDS011;13346;50.984;5.822;2022-10-17T02:42:27;4.70;;;4.30;;
24443;SDS011;13346;50.984;5.822;2022-10-17T02:44:56;4.07;;;3.78;;
24443;SDS011;13346;50.984;5.822;2022-10-17T02:47:26;4.20;;;3.90;;
24443;SDS011;13346;50.984;5.822;2022-10-17T02:49:59;4.15;;;3.88;;
24443;SDS011;13346;50.984;5.822;2022-10-17T02:52:27;4.00;;;3.70;;
24443;SDS011;13346;50.984;5.822;2022-10-17T02:54:58;4.45;;;4.15;;
24443;SDS011;13346;50.984;5.822;2022-10-17T02:57:29;3.60;;;3.30;;
24443;SDS011;13346;50.984;5.822;2022-10-17T03:00:00;3.70;;;3.38;;
24443;SDS011;13346;50.984;5.822;2022-10-17T03:02:28;3.97;;;3.72;;
24443;SDS011;13346;50.984;5.822;2022-10-17T03:05:06;3.58;;;3.38;;
24443;SDS011;13346;50.984;5.822;2022-10-17T03:07:34;5.00;;;4.53;;
24443;SDS011;13346;50.984;5.822;2022-10-17T03:10:02;4.22;;;3.88;;
24443;SDS011;13346;50.984;5.822;2022-10-17T03:12:30;6.45;;;3.65;;
24443;SDS011;13346;50.984;5.822;2022-10-17T03:14:57;4.10;;;3.65;;
24443;SDS011;13346;50.984;5.822;2022-10-17T03:17:24;6.15;;;3.58;;
24443;SDS011;13346;50.984;5.822;2022-10-17T03:19:51;4.45;;;4.15;;
24443;SDS011;13346;50.984;5.822;2022-10-17T03:22:19;4.28;;;3.97;;
24443;SDS011;13346;50.984;5.822;2022-10-17T03:24:47;3.67;;;3.47;;
24443;SDS011;13346;50.984;5.822;2022-10-17T03:27:14;6.50;;;3.42;;
24443;SDS011;13346;50.984;5.822;2022-10-17T03:29:41;5.20;;;3.40;;
24443;SDS011;13346;50.984;5.822;2022-10-17T03:32:09;3.80;;;3.42;;
24443;SDS011;13346;50.984;5.822;2022-10-17T03:34:36;5.03;;;3.63;;
24443;SDS011;13346;50.984;5.822;2022-10-17T03:37:03;7.90;;;3.83;;
24443;SDS011;13346;50.984;5.822;2022-10-17T03:39:31;3.42;;;3.20;;
24443;SDS011;13346;50.984;5.822;2022-10-17T03:41:58;4.43;;;3.35;;
24443;SDS011;13346;50.984;5.822;2022-10-17T03:44:26;3.97;;;3.63;;
24443;SDS011;13346;50.984;5.822;2022-10-17T03:46:53;3.95;;;3.20;;
24443;SDS011;13346;50.984;5.822;2022-10-17T03:49:20;4.32;;;3.72;;
24443;SDS011;13346;50.984;5.822;2022-10-17T03:51:47;5.32;;;3.58;;
24443;SDS011;13346;50.984;5.822;2022-10-17T03:54:14;3.92;;;3.25;;
24443;SDS011;13346;50.984;5.822;2022-10-17T03:56:42;4.85;;;3.28;;
24443;SDS011;13346;50.984;5.822;2022-10-17T03:59:11;3.33;;;3.03;;
24443;SDS011;13346;50.984;5.822;2022-10-17T04:01:39;4.25;;;3.85;;
24443;SDS011;13346;50.984;5.822;2022-10-17T04:04:06;4.05;;;3.47;;
24443;SDS011;13346;50.984;5.822;2022-10-17T04:06:33;4.22;;;3.90;;
24443;SDS011;13346;50.984;5.822;2022-10-17T04:09:01;4.07;;;3.78;;
24443;SDS011;13346;50.984;5.822;2022-10-17T04:11:28;3.15;;;3.05;;
24443;SDS011;13346;50.984;5.822;2022-10-17T04:13:57;4.53;;;4.13;;
24443;SDS011;13346;50.984;5.822;2022-10-17T04:16:24;3.58;;;3.22;;
24443;SDS011;13346;50.984;5.822;2022-10-17T04:18:52;4.72;;;3.72;;
24443;SDS011;13346;50.984;5.822;2022-10-17T04:21:20;4.53;;;3.85;;
24443;SDS011;13346;50.984;5.822;2022-10-17T04:23:51;3.45;;;3.15;;
24443;SDS011;13346;50.984;5.822;2022-10-17T04:26:19;3.35;;;3.17;;
24443;SDS011;13346;50.984;5.822;2022-10-17T04:28:47;3.80;;;3.47;;
24443;SDS011;13346;50.984;5.822;2022-10-17T04:31:15;3.40;;;3.15;;
24443;SDS011;13346;50.984;5.822;2022-10-17T04:33:45;4.00;;;3.67;;
24443;SDS011;13346;50.984;5.822;2022-10-17T04:36:14;4.90;;;3.45;;
24443;SDS011;13346;50.984;5.822;2022-10-17T04:38:43;4.20;;;3.90;;
24443;SDS011;13346;50.984;5.822;2022-10-17T04:41:11;3.60;;;3.20;;
24443;SDS011;13346;50.984;5.822;2022-10-17T04:43:40;4.97;;;3.22;;
24443;SDS011;13346;50.984;5.822;2022-10-17T04:46:08;4.05;;;3.40;;
24443;SDS011;13346;50.984;5.822;2022-10-17T04:48:38;4.50;;;3.40;;
24443;SDS011;13346;50.984;5.822;2022-10-17T04:51:06;4.13;;;3.42;;
24443;SDS011;13346;50.984;5.822;2022-10-17T04:53:36;3.45;;;3.17;;
24443;SDS011;13346;50.984;5.822;2022-10-17T04:56:07;3.80;;;3.35;;
24443;SDS011;13346;50.984;5.822;2022-10-17T04:58:35;5.60;;;3.63;;
24443;SDS011;13346;50.984;5.822;2022-10-17T05:01:03;4.15;;;3.75;;
24443;SDS011;13346;50.984;5.822;2022-10-17T05:03:31;4.25;;;3.85;;
24443;SDS011;13346;50.984;5.822;2022-10-17T05:06:03;4.32;;;3.90;;
24443;SDS011;13346;50.984;5.822;2022-10-17T05:08:31;9.82;;;4.07;;
24443;SDS011;13346;50.984;5.822;2022-10-17T05:10:58;4.35;;;3.78;;
24443;SDS011;13346;50.984;5.822;2022-10-17T05:13:25;3.40;;;3.20;;
24443;SDS011;13346;50.984;5.822;2022-10-17T05:15:52;3.97;;;3.55;;
24443;SDS011;13346;50.984;5.822;2022-10-17T05:18:23;3.80;;;3.47;;
24443;SDS011;13346;50.984;5.822;2022-10-17T05:20:50;3.70;;;3.25;;
24443;SDS011;13346;50.984;5.822;2022-10-17T05:23:18;5.75;;;4.07;;
24443;SDS011;13346;50.984;5.822;2022-10-17T05:25:46;3.40;;;3.20;;
24443;SDS011;13346;50.984;5.822;2022-10-17T05:28:13;4.63;;;3.50;;
24443;SDS011;13346;50.984;5.822;2022-10-17T05:30:40;5.55;;;3.35;;
24443;SDS011;13346;50.984;5.822;2022-10-17T05:33:07;6.25;;;3.47;;
24443;SDS011;13346;50.984;5.822;2022-10-17T05:35:34;5.35;;;3.38;;
24443;SDS011;13346;50.984;5.822;2022-10-17T05:38:01;3.83;;;3.63;;
24443;SDS011;13346;50.984;5.822;2022-10-17T05:40:30;5.25;;;3.72;;
24443;SDS011;13346;50.984;5.822;2022-10-17T05:42:57;3.28;;;2.97;;
24443;SDS011;13346;50.984;5.822;2022-10-17T05:45:24;3.95;;;3.55;;
24443;SDS011;13346;50.984;5.822;2022-10-17T05:47:51;4.38;;;3.97;;
24443;SDS011;13346;50.984;5.822;2022-10-17T05:50:19;4.95;;;3.30;;
24443;SDS011;13346;50.984;5.822;2022-10-17T05:52:51;3.70;;;3.40;;
24443;SDS011;13346;50.984;5.822;2022-10-17T05:55:19;5.82;;;3.38;;
24443;SDS011;13346;50.984;5.822;2022-10-17T05:57:47;3.30;;;3.00;;
24443;SDS011;13346;50.984;5.822;2022-10-17T06:00:16;3.10;;;2.90;;
24443;SDS011;13346;50.984;5.822;2022-10-17T06:02:44;4.85;;;3.45;;
24443;SDS011;13346;50.984;5.822;2022-10-17T06:05:11;2.70;;;2.50;;
24443;SDS011;13346;50.984;5.822;2022-10-17T06:07:39;6.80;;;3.75;;
24443;SDS011;13346;50.984;5.822;2022-10-17T06:10:07;3.95;;;3.75;;
24443;SDS011;13346;50.984;5.822;2022-10-17T06:12:36;5.38;;;3.40;;
24443;SDS011;13346;50.984;5.822;2022-10-17T06:15:05;6.72;;;3.35;;
24443;SDS011;13346;50.984;5.822;2022-10-17T06:17:33;4.82;;;3.55;;
24443;SDS011;13346;50.984;5.822;2022-10-17T06:20:01;3.83;;;3.50;;
24443;SDS011;13346;50.984;5.822;2022-10-17T06:22:28;5.97;;;3.35;;
24443;SDS011;13346;50.984;5.822;2022-10-17T06:24:55;4.38;;;3.00;;
24443;SDS011;13346;50.984;5.822;2022-10-17T06:27:22;3.58;;;3.28;;
24443;SDS011;13346;50.984;5.822;2022-10-17T06:29:49;2.80;;;2.60;;
24443;SDS011;13346;50.984;5.822;2022-10-17T06:32:18;3.60;;;3.25;;
24443;SDS011;13346;50.984;5.822;2022-10-17T06:34:45;3.53;;;3.10;;
24443;SDS011;13346;50.984;5.822;2022-10-17T06:37:12;6.63;;;3.20;;
24443;SDS011;13346;50.984;5.822;2022-10-17T06:39:39;4.10;;;3.00;;
24443;SDS011;13346;50.984;5.822;2022-10-17T06:42:06;6.45;;;3.55;;
24443;SDS011;13346;50.984;5.822;2022-10-17T06:44:33;6.85;;;2.63;;
24443;SDS011;13346;50.984;5.822;2022-10-17T06:47:00;2.83;;;2.72;;
24443;SDS011;13346;50.984;5.822;2022-10-17T06:49:29;5.90;;;3.25;;
24443;SDS011;13346;50.984;5.822;2022-10-17T06:51:58;5.43;;;3.00;;
24443;SDS011;13346;50.984;5.822;2022-10-17T06:54:25;3.13;;;2.95;;
24443;SDS011;13346;50.984;5.822;2022-10-17T06:56:53;6.05;;;3.42;;
24443;SDS011;13346;50.984;5.822;2022-10-17T06:59:20;3.80;;;3.13;;
24443;SDS011;13346;50.984;5.822;2022-10-17T07:01:47;3.67;;;3.28;;
24443;SDS011;13346;50.984;5.822;2022-10-17T07:04:15;2.67;;;2.58;;
24443;SDS011;13346;50.984;5.822;2022-10-17T07:06:43;4.93;;;3.20;;
24443;SDS011;13346;50.984;5.822;2022-10-17T07:09:10;3.20;;;2.65;;
24443;SDS011;13346;50.984;5.822;2022-10-17T07:11:37;6.78;;;3.70;;
24443;SDS011;13346;50.984;5.822;2022-10-17T07:14:05;3.40;;;3.10;;
24443;SDS011;13346;50.984;5.822;2022-10-17T07:16:32;4.78;;;3.17;;
24443;SDS011;13346;50.984;5.822;2022-10-17T07:18:59;3.22;;;3.00;;
24443;SDS011;13346;50.984;5.822;2022-10-17T07:21:26;6.57;;;2.83;;
24443;SDS011;13346;50.984;5.822;2022-10-17T07:23:55;5.25;;;3.65;;
24443;SDS011;13346;50.984;5.822;2022-10-17T07:26:22;7.35;;;2.95;;
24443;SDS011;13346;50.984;5.822;2022-10-17T07:28:50;3.10;;;2.80;;
24443;SDS011;13346;50.984;5.822;2022-10-17T07:31:19;3.35;;;3.15;;
24443;SDS011;13346;50.984;5.822;2022-10-17T07:33:48;3.15;;;2.95;;
24443;SDS011;13346;50.984;5.822;2022-10-17T07:36:16;7.60;;;3.25;;
24443;SDS011;13346;50.984;5.822;2022-10-17T07:38:43;8.23;;;3.00;;
24443;SDS011;13346;50.984;5.822;2022-10-17T07:41:12;4.30;;;3.15;;
24443;SDS011;13346;50.984;5.822;2022-10-17T07:43:39;3.25;;;3.05;;
24443;SDS011;13346;50.984;5.822;2022-10-17T07:46:07;3.97;;;2.90;;
24443;SDS011;13346;50.984;5.822;2022-10-17T07:48:35;2.63;;;2.53;;
24443;SDS011;13346;50.984;5.822;2022-10-17T07:51:03;4.05;;;2.95;;
24443;SDS011;13346;50.984;5.822;2022-10-17T07:53:33;4.45;;;3.45;;
24443;SDS011;13346;50.984;5.822;2022-10-17T07:56:06;3.78;;;3.58;;
24443;SDS011;13346;50.984;5.822;2022-10-17T07:58:35;4.05;;;2.80;;
24443;SDS011;13346;50.984;5.822;2022-10-17T08:01:03;2.75;;;2.65;;
24443;SDS011;13346;50.984;5.822;2022-10-17T08:03:32;4.55;;;3.40;;
24443;SDS011;13346;50.984;5.822;2022-10-17T08:05:59;6.15;;;3.50;;
24443;SDS011;13346;50.984;5.822;2022-10-17T08:08:27;5.38;;;3.17;;
24443;SDS011;13346;50.984;5.822;2022-10-17T08:10:55;2.78;;;2.58;;
24443;SDS011;13346;50.984;5.822;2022-10-17T08:13:28;2.47;;;2.20;;
24443;SDS011;13346;50.984;5.822;2022-10-17T08:15:59;2.50;;;2.40;;
24443;SDS011;13346;50.984;5.822;2022-10-17T08:18:26;3.35;;;3.08;;
24443;SDS011;13346;50.984;5.822;2022-10-17T08:20:54;5.60;;;2.45;;
24443;SDS011;13346;50.984;5.822;2022-10-17T08:23:24;3.00;;;2.80;;
24443;SDS011;13346;50.984;5.822;2022-10-17T08:25:51;2.97;;;2.78;;
24443;SDS011;13346;50.984;5.822;2022-10-17T08:28:18;2.45;;;2.35;;
24443;SDS011;13346;50.984;5.822;2022-10-17T08:30:45;5.38;;;2.25;;
24443;SDS011;13346;50.984;5.822;2022-10-17T08:33:14;2.40;;;2.30;;
24443;SDS011;13346;50.984;5.822;2022-10-17T08:35:41;3.42;;;3.22;;
24443;SDS011;13346;50.984;5.822;2022-10-17T08:38:08;3.13;;;2.53;;
24443;SDS011;13346;50.984;5.822;2022-10-17T08:40:35;3.50;;;2.28;;
24443;SDS011;13346;50.984;5.822;2022-10-17T08:43:10;3.97;;;2.50;;
24443;SDS011;13346;50.984;5.822;2022-10-17T08:45:48;3.67;;;2.80;;
24443;SDS011;13346;50.984;5.822;2022-10-17T08:48:22;3.67;;;2.53;;
24443;SDS011;13346;50.984;5.822;2022-10-17T08:50:51;4.05;;;2.63;;
24443;SDS011;13346;50.984;5.822;2022-10-17T08:53:21;6.65;;;2.45;;
24443;SDS011;13346;50.984;5.822;2022-10-17T08:55:53;2.45;;;2.35;;
24443;SDS011;13346;50.984;5.822;2022-10-17T08:58:21;3.88;;;3.50;;
24443;SDS011;13346;50.984;5.822;2022-10-17T09:00:52;5.15;;;2.35;;
24443;SDS011;13346;50.984;5.822;2022-10-17T09:03:33;4.97;;;2.95;;
24443;SDS011;13346;50.984;5.822;2022-10-17T09:06:16;3.63;;;2.67;;
24443;SDS011;13346;50.984;5.822;2022-10-17T09:08:51;2.83;;;2.63;;
24443;SDS011;13346;50.984;5.822;2022-10-17T09:11:35;5.10;;;2.65;;
24443;SDS011;13346;50.984;5.822;2022-10-17T09:14:30;3.10;;;2.90;;
24443;SDS011;13346;50.984;5.822;2022-10-17T09:17:11;2.50;;;2.38;;
24443;SDS011;13346;50.984;5.822;2022-10-17T09:19:45;2.72;;;2.53;;
24443;SDS011;13346;50.984;5.822;2022-10-17T09:22:23;5.20;;;2.97;;
24443;SDS011;13346;50.984;5.822;2022-10-17T09:24:54;3.42;;;2.83;;
24443;SDS011;13346;50.984;5.822;2022-10-17T09:27:25;2.63;;;2.30;;
24443;SDS011;13346;50.984;5.822;2022-10-17T09:30:01;3.60;;;2.83;;
24443;SDS011;13346;50.984;5.822;2022-10-17T09:32:47;3.92;;;3.55;;
24443;SDS011;13346;50.984;5.822;2022-10-17T09:35:16;3.90;;;2.35;;
24443;SDS011;13346;50.984;5.822;2022-10-17T09:37:45;5.43;;;2.65;;
24443;SDS011;13346;50.984;5.822;2022-10-17T09:40:27;5.45;;;2.70;;
24443;SDS011;13346;50.984;5.822;2022-10-17T09:42:58;6.72;;;3.03;;
24443;SDS011;13346;50.984;5.822;2022-10-17T09:45:35;3.60;;;3.00;;
24443;SDS011;13346;50.984;5.822;2022-10-17T09:48:13;3.15;;;2.85;;
24443;SDS011;13346;50.984;5.822;2022-10-17T09:50:47;3.47;;;3.28;;
24443;SDS011;13346;50.984;5.822;2022-10-17T09:53:19;2.70;;;2.30;;
24443;SDS011;13346;50.984;5.822;2022-10-17T09:55:50;4.45;;;2.88;;
24443;SDS011;13346;50.984;5.822;2022-10-17T09:58:21;7.00;;;3.28;;
24443;SDS011;13346;50.984;5.822;2022-10-17T10:00:50;10.30;;;3.33;;
24443;SDS011;13346;50.984;5.822;2022-10-17T10:03:17;5.13;;;2.97;;
24443;SDS011;13346;50.984;5.822;2022-10-17T10:05:59;3.33;;;2.53;;
24443;SDS011;13346;50.984;5.822;2022-10-17T10:08:29;5.57;;;2.90;;
24443;SDS011;13346;50.984;5.822;2022-10-17T10:10:57;3.50;;;2.83;;
24443;SDS011;13346;50.984;5.822;2022-10-17T10:13:29;2.92;;;2.63;;
24443;SDS011;13346;50.984;5.822;2022-10-17T10:18:45;3.42;;;2.72;;
24443;SDS011;13346;50.984;5.822;2022-10-17T10:21:14;3.88;;;3.00;;
24443;SDS011;13346;50.984;5.822;2022-10-17T10:23:44;5.82;;;3.35;;
24443;SDS011;13346;50.984;5.822;2022-10-17T10:26:28;4.55;;;3.17;;
24443;SDS011;13346;50.984;5.822;2022-10-17T10:28:59;6.30;;;3.47;;
24443;SDS011;13346;50.984;5.822;2022-10-17T10:31:32;4.10;;;3.20;;
24443;SDS011;13346;50.984;5.822;2022-10-17T10:34:10;6.05;;;3.38;;
24443;SDS011;13346;50.984;5.822;2022-10-17T10:36:42;4.07;;;3.20;;
24443;SDS011;13346;50.984;5.822;2022-10-17T10:39:16;6.97;;;3.38;;
24443;SDS011;13346;50.984;5.822;2022-10-17T10:41:53;5.15;;;3.70;;
24443;SDS011;13346;50.984;5.822;2022-10-17T10:44:22;4.05;;;3.10;;
24443;SDS011;13346;50.984;5.822;2022-10-17T10:47:05;2.90;;;2.70;;
24443;SDS011;13346;50.984;5.822;2022-10-17T10:49:45;6.00;;;3.10;;
24443;SDS011;13346;50.984;5.822;2022-10-17T10:52:14;5.70;;;3.10;;
24443;SDS011;13346;50.984;5.822;2022-10-17T10:54:50;3.75;;;3.50;;
24443;SDS011;13346;50.984;5.822;2022-10-17T10:57:23;3.97;;;3.60;;
24443;SDS011;13346;50.984;5.822;2022-10-17T10:59:56;3.45;;;3.25;;
24443;SDS011;13346;50.984;5.822;2022-10-17T11:02:32;2.95;;;2.75;;
24443;SDS011;13346;50.984;5.822;2022-10-17T11:05:09;3.03;;;2.83;;
24443;SDS011;13346;50.984;5.822;2022-10-17T11:07:42;4.85;;;3.88;;
24443;SDS011;13346;50.984;5.822;2022-10-17T11:10:18;3.95;;;3.65;;
24443;SDS011;13346;50.984;5.822;2022-10-17T11:12:52;3.85;;;3.38;;
24443;SDS011;13346;50.984;5.822;2022-10-17T11:15:29;3.70;;;3.35;;
24443;SDS011;13346;50.984;5.822;2022-10-17T11:18:03;6.90;;;3.67;;
24443;SDS011;13346;50.984;5.822;2022-10-17T11:20:35;5.10;;;3.80;;
24443;SDS011;13346;50.984;5.822;2022-10-17T11:23:13;4.57;;;3.42;;
24443;SDS011;13346;50.984;5.822;2022-10-17T11:25:45;7.95;;;3.92;;
24443;SDS011;13346;50.984;5.822;2022-10-17T11:28:16;8.32;;;4.00;;
24443;SDS011;13346;50.984;5.822;2022-10-17T11:30:45;4.25;;;3.92;;
24443;SDS011;13346;50.984;5.822;2022-10-17T11:33:21;6.07;;;3.38;;
24443;SDS011;13346;50.984;5.822;2022-10-17T11:35:53;8.35;;;3.92;;
24443;SDS011;13346;50.984;5.822;2022-10-17T11:38:24;4.20;;;3.67;;
24443;SDS011;13346;50.984;5.822;2022-10-17T11:40:59;5.82;;;3.17;;
24443;SDS011;13346;50.984;5.822;2022-10-17T11:43:30;3.75;;;3.45;;
24443;SDS011;13346;50.984;5.822;2022-10-17T11:46:03;5.57;;;3.08;;
24443;SDS011;13346;50.984;5.822;2022-10-17T11:48:38;5.68;;;3.30;;
24443;SDS011;13346;50.984;5.822;2022-10-17T11:51:08;6.80;;;3.95;;
24443;SDS011;13346;50.984;5.822;2022-10-17T11:53:43;8.38;;;3.20;;
24443;SDS011;13346;50.984;5.822;2022-10-17T11:56:13;4.70;;;2.50;;
24443;SDS011;13346;50.984;5.822;2022-10-17T11:58:49;3.60;;;2.95;;
24443;SDS011;13346;50.984;5.822;2022-10-17T12:01:23;4.93;;;2.65;;
24443;SDS011;13346;50.984;5.822;2022-10-17T12:04:03;3.70;;;2.53;;
24443;SDS011;13346;50.984;5.822;2022-10-17T12:06:52;2.78;;;2.50;;
24443;SDS011;13346;50.984;5.822;2022-10-17T12:09:36;3.58;;;3.00;;
24443;SDS011;13346;50.984;5.822;2022-10-17T12:12:07;2.90;;;2.60;;
24443;SDS011;13346;50.984;5.822;2022-10-17T12:14:39;3.38;;;2.83;;
24443;SDS011;13346;50.984;5.822;2022-10-17T12:17:24;4.93;;;2.38;;
24443;SDS011;13346;50.984;5.822;2022-10-17T12:22:51;5.13;;;3.45;;
24443;SDS011;13346;50.984;5.822;2022-10-17T12:25:19;2.55;;;2.35;;
24443;SDS011;13346;50.984;5.822;2022-10-17T12:27:48;3.72;;;2.53;;
24443;SDS011;13346;50.984;5.822;2022-10-17T12:30:17;2.92;;;2.67;;
24443;SDS011;13346;50.984;5.822;2022-10-17T12:32:57;2.92;;;2.72;;
24443;SDS011;13346;50.984;5.822;2022-10-17T12:35:29;1.98;;;1.88;;
24443;SDS011;13346;50.984;5.822;2022-10-17T12:38:02;6.28;;;2.22;;
24443;SDS011;13346;50.984;5.822;2022-10-17T12:41:00;3.22;;;2.45;;
24443;SDS011;13346;50.984;5.822;2022-10-17T12:46:42;2.72;;;2.47;;
24443;SDS011;13346;50.984;5.822;2022-10-17T12:55:15;15.88;;;4.90;;
24443;SDS011;13346;50.984;5.822;2022-10-17T12:57:47;10.38;;;2.80;;
24443;SDS011;13346;50.984;5.822;2022-10-17T13:00:23;2.63;;;2.30;;
24443;SDS011;13346;50.984;5.822;2022-10-17T13:02:55;3.00;;;2.80;;
24443;SDS011;13346;50.984;5.822;2022-10-17T13:05:29;2.70;;;2.50;;
24443;SDS011;13346;50.984;5.822;2022-10-17T13:08:00;4.30;;;2.83;;
24443;SDS011;13346;50.984;5.822;2022-10-17T13:10:30;3.33;;;3.13;;
24443;SDS011;13346;50.984;5.822;2022-10-17T13:13:03;7.00;;;2.90;;
24443;SDS011;13346;50.984;5.822;2022-10-17T13:15:34;3.00;;;2.80;;
24443;SDS011;13346;50.984;5.822;2022-10-17T13:18:03;7.40;;;3.42;;
24443;SDS011;13346;50.984;5.822;2022-10-17T13:20:31;6.68;;;2.85;;
24443;SDS011;13346;50.984;5.822;2022-10-17T13:23:00;2.78;;;2.58;;
24443;SDS011;13346;50.984;5.822;2022-10-17T13:25:27;3.30;;;2.38;;
24443;SDS011;13346;50.984;5.822;2022-10-17T13:28:11;2.55;;;2.35;;
24443;SDS011;13346;50.984;5.822;2022-10-17T13:30:38;3.92;;;3.17;;
24443;SDS011;13346;50.984;5.822;2022-10-17T13:33:20;3.38;;;2.67;;
24443;SDS011;13346;50.984;5.822;2022-10-17T13:35:56;3.05;;;2.65;;
24443;SDS011;13346;50.984;5.822;2022-10-17T23:54:06;5.80;;;5.40;;
24443;SDS011;13346;50.984;5.822;2022-10-17T23:56:33;6.57;;;5.97;;
24443;SDS011;13346;50.984;5.822;2022-10-17T23:59:00;5.93;;;5.53;;
